ARG1517 SABE-SACO
Flight info
| Callsign | ARG1517 |
|---|---|
| Flight time | N/A |
| Altitude | 32000 |
| Route | ATOV4B ATOVO UW5 ASISA ASIS1Q |
| Aircraft | B737/M-V/N |
Departure
| Time | N/A |
|---|---|
| Airport | Aeroparque Jorge Newbery (SABE) |
Arrival
| Time | 2026-05-03 20:52 |
|---|---|
| Airport | Ingeniero Aeronáutico Ambrosio L.V. Taravella International Airport (SACO) |
| Time | Latitude | Longitude | Altitude | Speed | Heading |
|---|---|---|---|---|---|
| 2026-05-03 20:15 | -32.73471 | -61.13787 | 31996 ft | 447 kts | 301° |
| 2026-05-03 20:15 | -32.70118 | -61.20046 | 31996 ft | 447 kts | 300° |
| 2026-05-03 20:16 | -32.66834 | -61.26316 | 31996 ft | 447 kts | 300° |
| 2026-05-03 20:16 | -32.63585 | -61.32623 | 31996 ft | 447 kts | 300° |
| 2026-05-03 20:17 | -32.60363 | -61.38944 | 31996 ft | 447 kts | 299° |
| 2026-05-03 20:17 | -32.57180 | -61.45231 | 31996 ft | 447 kts | 299° |
| 2026-05-03 20:18 | -32.53973 | -61.51584 | 31996 ft | 447 kts | 299° |
| 2026-05-03 20:18 | -32.50798 | -61.57881 | 31996 ft | 447 kts | 299° |
| 2026-05-03 20:19 | -32.47605 | -61.64213 | 31996 ft | 447 kts | 299° |
| 2026-05-03 20:19 | -32.44424 | -61.70515 | 31996 ft | 447 kts | 299° |
| 2026-05-03 20:20 | -32.41233 | -61.76829 | 31996 ft | 446 kts | 299° |
| 2026-05-03 20:20 | -32.38030 | -61.83158 | 31939 ft | 448 kts | 299° |
| 2026-05-03 20:20 | -32.36412 | -61.86354 | 31592 ft | 455 kts | 299° |
| 2026-05-03 20:21 | -32.34766 | -61.89602 | 31162 ft | 463 kts | 299° |
| 2026-05-03 20:21 | -32.33104 | -61.92882 | 30719 ft | 470 kts | 299° |
| 2026-05-03 20:21 | -32.31411 | -61.96217 | 30271 ft | 475 kts | 299° |
| 2026-05-03 20:21 | -32.29718 | -61.99550 | 29826 ft | 479 kts | 299° |
| 2026-05-03 20:22 | -32.27978 | -62.02972 | 29370 ft | 482 kts | 300° |
| 2026-05-03 20:22 | -32.26253 | -62.06359 | 28917 ft | 479 kts | 300° |
| 2026-05-03 20:22 | -32.24569 | -62.09656 | 28464 ft | 458 kts | 300° |
| 2026-05-03 20:22 | -32.22970 | -62.12779 | 28012 ft | 437 kts | 300° |
| 2026-05-03 20:23 | -32.21426 | -62.15793 | 27563 ft | 423 kts | 299° |
| 2026-05-03 20:23 | -32.19926 | -62.18719 | 27111 ft | 411 kts | 299° |
| 2026-05-03 20:23 | -32.18460 | -62.21579 | 26657 ft | 402 kts | 299° |
| 2026-05-03 20:23 | -32.17015 | -62.24400 | 26201 ft | 395 kts | 299° |
| 2026-05-03 20:24 | -32.15593 | -62.27175 | 25747 ft | 390 kts | 299° |
| 2026-05-03 20:24 | -32.14199 | -62.29897 | 25296 ft | 387 kts | 299° |
| 2026-05-03 20:24 | -32.12804 | -62.32618 | 24842 ft | 383 kts | 299° |
| 2026-05-03 20:24 | -32.11431 | -62.35296 | 24392 ft | 381 kts | 299° |
| 2026-05-03 20:25 | -32.10063 | -62.37963 | 23940 ft | 379 kts | 299° |
| 2026-05-03 20:25 | -32.08702 | -62.40615 | 23493 ft | 381 kts | 299° |
| 2026-05-03 20:25 | -32.07314 | -62.43319 | 23042 ft | 386 kts | 299° |
| 2026-05-03 20:25 | -32.05921 | -62.46032 | 22595 ft | 389 kts | 299° |
| 2026-05-03 20:26 | -32.04527 | -62.48742 | 22150 ft | 390 kts | 299° |
| 2026-05-03 20:26 | -32.03116 | -62.51483 | 21699 ft | 390 kts | 299° |
| 2026-05-03 20:26 | -32.01695 | -62.54240 | 21244 ft | 388 kts | 299° |
| 2026-05-03 20:26 | -32.00309 | -62.56925 | 20797 ft | 385 kts | 299° |
| 2026-05-03 20:27 | -31.98920 | -62.59612 | 20434 ft | 379 kts | 299° |
| 2026-05-03 20:27 | -31.97553 | -62.62255 | 20124 ft | 375 kts | 299° |
| 2026-05-03 20:27 | -31.96207 | -62.64855 | 19823 ft | 372 kts | 299° |
| 2026-05-03 20:27 | -31.94861 | -62.67456 | 19521 ft | 370 kts | 299° |
| 2026-05-03 20:28 | -31.93533 | -62.70020 | 19222 ft | 368 kts | 299° |
| 2026-05-03 20:28 | -31.92189 | -62.72614 | 18918 ft | 366 kts | 299° |
| 2026-05-03 20:28 | -31.90875 | -62.75149 | 18620 ft | 365 kts | 299° |
| 2026-05-03 20:28 | -31.89556 | -62.77691 | 18320 ft | 363 kts | 299° |
| 2026-05-03 20:29 | -31.88241 | -62.80224 | 18019 ft | 362 kts | 299° |
| 2026-05-03 20:29 | -31.86931 | -62.82745 | 17718 ft | 360 kts | 299° |
| 2026-05-03 20:29 | -31.85618 | -62.85271 | 17415 ft | 358 kts | 300° |
| 2026-05-03 20:29 | -31.84763 | -62.86915 | 17217 ft | 357 kts | 300° |
| 2026-05-03 20:30 | -31.83468 | -62.89404 | 16917 ft | 356 kts | 300° |
| 2026-05-03 20:30 | -31.82183 | -62.91871 | 16617 ft | 354 kts | 300° |
| 2026-05-03 20:30 | -31.80886 | -62.94360 | 16313 ft | 352 kts | 300° |
| 2026-05-03 20:30 | -31.79618 | -62.96791 | 16015 ft | 351 kts | 300° |
| 2026-05-03 20:31 | -31.78332 | -62.99256 | 15748 ft | 351 kts | 300° |
| 2026-05-03 20:31 | -31.77047 | -63.01719 | 15499 ft | 357 kts | 300° |
| 2026-05-03 20:31 | -31.75746 | -63.04213 | 15256 ft | 366 kts | 300° |
| 2026-05-03 20:31 | -31.74408 | -63.06776 | 15008 ft | 370 kts | 300° |
| 2026-05-03 20:32 | -31.73056 | -63.09364 | 14758 ft | 372 kts | 300° |
| 2026-05-03 20:32 | -31.71687 | -63.11977 | 14506 ft | 373 kts | 300° |
| 2026-05-03 20:32 | -31.70337 | -63.14554 | 14258 ft | 373 kts | 300° |
| 2026-05-03 20:32 | -31.68978 | -63.17145 | 14008 ft | 372 kts | 300° |
| 2026-05-03 20:33 | -31.67644 | -63.19767 | 13756 ft | 371 kts | 298° |
| 2026-05-03 20:33 | -31.66372 | -63.22368 | 13508 ft | 370 kts | 298° |
| 2026-05-03 20:33 | -31.65102 | -63.25027 | 13255 ft | 369 kts | 297° |
| 2026-05-03 20:33 | -31.63862 | -63.27662 | 13005 ft | 368 kts | 297° |
| 2026-05-03 20:34 | -31.62634 | -63.30296 | 12754 ft | 367 kts | 297° |
| 2026-05-03 20:34 | -31.61415 | -63.32922 | 12503 ft | 365 kts | 297° |
| 2026-05-03 20:34 | -31.60212 | -63.35521 | 12254 ft | 364 kts | 297° |
| 2026-05-03 20:34 | -31.59004 | -63.38134 | 12003 ft | 363 kts | 297° |
| 2026-05-03 20:35 | -31.57799 | -63.40740 | 11752 ft | 362 kts | 297° |
| 2026-05-03 20:35 | -31.56599 | -63.43333 | 11501 ft | 360 kts | 297° |
| 2026-05-03 20:35 | -31.55404 | -63.45899 | 11251 ft | 359 kts | 298° |
| 2026-05-03 20:35 | -31.53933 | -63.48279 | 11014 ft | 360 kts | 313° |
| 2026-05-03 20:36 | -31.51820 | -63.49823 | 10991 ft | 362 kts | 334° |
| 2026-05-03 20:36 | -31.49438 | -63.50777 | 10977 ft | 365 kts | 340° |
| 2026-05-03 20:36 | -31.46974 | -63.51551 | 10954 ft | 367 kts | 343° |
| 2026-05-03 20:36 | -31.44479 | -63.52242 | 10909 ft | 364 kts | 344° |
| 2026-05-03 20:37 | -31.42033 | -63.52875 | 10663 ft | 358 kts | 344° |
| 2026-05-03 20:37 | -31.39635 | -63.53474 | 10411 ft | 350 kts | 345° |
| 2026-05-03 20:37 | -31.37304 | -63.54041 | 10153 ft | 331 kts | 345° |
| 2026-05-03 20:37 | -31.35103 | -63.54566 | 9897 ft | 315 kts | 345° |
| 2026-05-03 20:38 | -31.32976 | -63.55064 | 9638 ft | 302 kts | 345° |
| 2026-05-03 20:38 | -31.30977 | -63.55525 | 9386 ft | 291 kts | 345° |
| 2026-05-03 20:38 | -31.28987 | -63.55981 | 9129 ft | 284 kts | 345° |
| 2026-05-03 20:38 | -31.27111 | -63.56532 | 8872 ft | 276 kts | 335° |
| 2026-05-03 20:39 | -31.25595 | -63.57802 | 8603 ft | 264 kts | 304° |
| 2026-05-03 20:39 | -31.25025 | -63.59776 | 8332 ft | 258 kts | 270° |
| 2026-05-03 20:39 | -31.25434 | -63.61807 | 7980 ft | 259 kts | 249° |
| 2026-05-03 20:39 | -31.26216 | -63.63709 | 7608 ft | 258 kts | 244° |
| 2026-05-03 20:40 | -31.27064 | -63.65521 | 7236 ft | 256 kts | 243° |
| 2026-05-03 20:40 | -31.27939 | -63.67313 | 6862 ft | 254 kts | 242° |
| 2026-05-03 20:40 | -31.28828 | -63.69109 | 6483 ft | 252 kts | 242° |
| 2026-05-03 20:40 | -31.29712 | -63.70879 | 6104 ft | 252 kts | 242° |
| 2026-05-03 20:41 | -31.30600 | -63.72638 | 5727 ft | 252 kts | 242° |
| 2026-05-03 20:41 | -31.31498 | -63.74421 | 5347 ft | 253 kts | 242° |
| 2026-05-03 20:41 | -31.32370 | -63.76183 | 5111 ft | 248 kts | 241° |
| 2026-05-03 20:41 | -31.33208 | -63.77915 | 5022 ft | 242 kts | 242° |
| 2026-05-03 20:42 | -31.34025 | -63.79629 | 5002 ft | 239 kts | 242° |
| 2026-05-03 20:42 | -31.34520 | -63.80673 | 5001 ft | 240 kts | 242° |
| 2026-05-03 20:42 | -31.34910 | -63.81497 | 5001 ft | 240 kts | 242° |
| 2026-05-03 20:42 | -31.35717 | -63.83207 | 5001 ft | 242 kts | 242° |
| 2026-05-03 20:43 | -31.36539 | -63.84953 | 5001 ft | 243 kts | 242° |
| 2026-05-03 20:43 | -31.37355 | -63.86686 | 5001 ft | 245 kts | 242° |
| 2026-05-03 20:43 | -31.38183 | -63.88446 | 5001 ft | 245 kts | 242° |
| 2026-05-03 20:43 | -31.38992 | -63.90169 | 5000 ft | 245 kts | 242° |
| 2026-05-03 20:44 | -31.39397 | -63.91033 | 5000 ft | 245 kts | 242° |
| 2026-05-03 20:44 | -31.39967 | -63.92248 | 5000 ft | 246 kts | 242° |
| 2026-05-03 20:44 | -31.40773 | -63.94036 | 4999 ft | 245 kts | 246° |
| 2026-05-03 20:44 | -31.41286 | -63.95427 | 5001 ft | 245 kts | 249° |
| 2026-05-03 20:45 | -31.41783 | -63.96887 | 5000 ft | 245 kts | 249° |
| 2026-05-03 20:45 | -31.42394 | -63.98749 | 5000 ft | 245 kts | 250° |
| 2026-05-03 20:45 | -31.42994 | -64.00619 | 5000 ft | 245 kts | 250° |
| 2026-05-03 20:45 | -31.43589 | -64.02498 | 5000 ft | 245 kts | 250° |
| 2026-05-03 20:46 | -31.43985 | -64.03754 | 5000 ft | 245 kts | 250° |
| 2026-05-03 20:46 | -31.44583 | -64.05656 | 5035 ft | 249 kts | 250° |
| 2026-05-03 20:46 | -31.45182 | -64.07560 | 4952 ft | 250 kts | 250° |
| 2026-05-03 20:46 | -31.45771 | -64.09448 | 4986 ft | 242 kts | 250° |
| 2026-05-03 20:47 | -31.46349 | -64.11296 | 4995 ft | 242 kts | 250° |
| 2026-05-03 20:47 | -31.46909 | -64.13149 | 4992 ft | 238 kts | 253° |
| 2026-05-03 20:47 | -31.47360 | -64.14967 | 4985 ft | 232 kts | 257° |
| 2026-05-03 20:47 | -31.47609 | -64.16800 | 4906 ft | 225 kts | 268° |
| 2026-05-03 20:48 | -31.47494 | -64.18635 | 4571 ft | 227 kts | 281° |
| 2026-05-03 20:48 | -31.47030 | -64.20384 | 4435 ft | 219 kts | 296° |
| 2026-05-03 20:48 | -31.46062 | -64.21640 | 4355 ft | 207 kts | 331° |
| 2026-05-03 20:48 | -31.44671 | -64.21989 | 4002 ft | 208 kts | 4° |
| 2026-05-03 20:49 | -31.43272 | -64.21619 | 3451 ft | 205 kts | 17° |
| 2026-05-03 20:49 | -31.41951 | -64.21131 | 3141 ft | 189 kts | 16° |
| 2026-05-03 20:49 | -31.40738 | -64.20791 | 2972 ft | 174 kts | 9° |
| 2026-05-03 20:49 | -31.39546 | -64.20703 | 2705 ft | 167 kts | 2° |
| 2026-05-03 20:50 | -31.38411 | -64.20700 | 2458 ft | 162 kts | 358° |
| 2026-05-03 20:50 | -31.37288 | -64.20736 | 2259 ft | 156 kts | 359° |
| 2026-05-03 20:50 | -31.36236 | -64.20759 | 2100 ft | 148 kts | 359° |
| 2026-05-03 20:50 | -31.35217 | -64.20763 | 1922 ft | 143 kts | 0° |
| 2026-05-03 20:51 | -31.34240 | -64.20778 | 1786 ft | 140 kts | 358° |
| 2026-05-03 20:51 | -31.33276 | -64.20792 | 1688 ft | 140 kts | 359° |
| 2026-05-03 20:51 | -31.32295 | -64.20817 | 1613 ft | 134 kts | 359° |
| 2026-05-03 20:51 | -31.31656 | -64.20824 | 1613 ft | 53 kts | 359° |
| 2026-05-03 20:52 | -31.31491 | -64.20825 | 1613 ft | 15 kts | 1° |
| 2026-05-03 20:52 | -31.31459 | -64.20872 | 1613 ft | 6 kts | 244° |
| 2026-05-03 20:52 | -31.31462 | -64.20919 | 1613 ft | 3 kts | 267° |
| 2026-05-03 20:52 | -31.31462 | -64.20920 | 1613 ft | 0 kts | 268° |
| 2026-05-03 20:53 | -31.31463 | -64.20923 | 1613 ft | 2 kts | 268° |
| 2026-05-03 20:53 | -31.31463 | -64.20947 | 1613 ft | 4 kts | 269° |
| 2026-05-03 20:53 | -31.31463 | -64.20986 | 1613 ft | 6 kts | 271° |
| 2026-05-03 20:54 | -31.31468 | -64.21031 | 1613 ft | 3 kts | 217° |
| 2026-05-03 20:54 | -31.31543 | -64.21032 | 1613 ft | 7 kts | 179° |
| 2026-05-03 20:54 | -31.31587 | -64.21032 | 1613 ft | 3 kts | 192° |
| 2026-05-03 20:55 | -31.31601 | -64.21040 | 1613 ft | 0 kts | 231° |
| 2026-05-03 20:55 | -31.31602 | -64.21048 | 1613 ft | 2 kts | 272° |
| 2026-05-03 20:55 | -31.31594 | -64.21084 | 1613 ft | 7 kts | 279° |
| 2026-05-03 20:55 | -31.31595 | -64.21123 | 1613 ft | 3 kts | 226° |
| 2026-05-03 20:56 | -31.31614 | -64.21140 | 1613 ft | 3 kts | 221° |
| 2026-05-03 20:56 | -31.31612 | -64.21160 | 1613 ft | 3 kts | 290° |
| 2026-05-03 20:56 | -31.31610 | -64.21166 | 1613 ft | 0 kts | 294° |
| 2026-05-03 21:00 | -34.55879 | -58.41129 | 18 ft | 0 kts | 15° |